Time;durP1;ratioP1;P1;durP2;ratioP2;P2;SDS_P1;SDS_P2;PMS_P1;PMS_P2;Temp;Humidity;BMP_temperature;BMP_pressure;BME280_temperature;BME280_humidity;BME280_pressure;Samples;Min_cycle;Max_cycle;Signal;HPM_P1;HPM_P2
2022/07/12 00:00:05;;;;;;;;;;;;;;;18.54;44.65;100278.56;4340076;32;19975;-85
2022/07/12 00:02:31;;;;;;;;;;;;;;;18.57;44.42;100277.66;4339645;33;20015;-82
2022/07/12 00:05:01;;;;;;;;;;;;;;;18.68;43.63;100269.69;4337969;32;20038;-83
2022/07/12 00:07:28;;;;;;;;;;;;;;;18.53;44.39;100271.56;4323563;33;19984;-82
2022/07/12 00:09:56;;;;;;;;;;;;;;;18.61;43.47;100275.88;4325174;33;20055;-83
2022/07/12 00:12:23;;;;;;;;;;;;;;;18.47;44.13;100276.84;4325430;33;19972;-83
2022/07/12 00:14:51;;;;;;;;;;;;;;;18.53;44.66;100275.94;4324835;33;19980;-83
2022/07/12 00:17:17;;;;;;;;;;;;;;;18.68;44.07;100274.94;4325113;33;20484;-84
2022/07/12 00:19:45;;;;;;;;;;;;;;;18.69;42.71;100271.41;4328767;32;19976;-83
2022/07/12 00:22:12;;;;;;;;;;;;;;;18.61;43.66;100276.75;4324937;33;20012;-83
2022/07/12 00:24:40;;;;;;;;;;;;;;;18.46;44.73;100279.50;4324994;33;19988;-83
2022/07/12 00:27:07;;;;;;;;;;;;;;;18.49;44.43;100275.09;4326409;32;20325;-84
2022/07/12 00:29:34;;;;;;;;;;;;;;;18.38;44.73;100276.97;4325031;33;20077;-84
2022/07/12 00:32:01;;;;;;;;;;;;;;;18.57;44.19;100268.03;4327113;33;19996;-83
2022/07/12 00:34:28;;;;;;;;;;;;;;;18.63;43.71;100271.47;4326650;33;19991;-84
2022/07/12 00:36:55;;;;;;;;;;;;;;;18.56;43.88;100282.00;4326569;33;20892;-84
2022/07/12 00:39:22;;;;;;;;;;;;;;;18.54;43.69;100278.56;4326619;33;20375;-83
2022/07/12 00:41:49;;;;;;;;;;;;;;;18.48;44.30;100278.63;4326759;33;19993;-84
2022/07/12 00:44:16;;;;;;;;;;;;;;;18.39;44.63;100272.59;4326717;33;20390;-85
2022/07/12 00:46:43;;;;;;;;;;;;;;;18.17;45.77;100287.63;4326443;33;20004;-85
2022/07/12 00:49:13;;;;;;;;;;;;;;;18.25;45.09;100291.94;4325188;33;20274;-84
2022/07/12 00:51:40;;;;;;;;;;;;;;;18.17;45.32;100288.47;4289464;33;19996;-83
2022/07/12 00:54:06;;;;;;;;;;;;;;;18.20;45.11;100282.34;4322345;33;19988;-83
2022/07/12 00:56:33;;;;;;;;;;;;;;;18.17;45.38;100287.63;4322631;33;19984;-83
2022/07/12 00:59:00;;;;;;;;;;;;;;;18.23;44.61;100287.56;4302595;33;20071;-83
2022/07/12 01:01:27;;;;;;;;;;;;;;;18.36;44.69;100286.59;4297541;33;20005;-82
2022/07/12 01:03:55;;;;;;;;;;;;;;;18.33;44.25;100289.22;4296007;33;20007;-84
2022/07/12 01:06:22;;;;;;;;;;;;;;;18.33;44.20;100283.97;4295950;33;20040;-83
2022/07/12 01:08:49;;;;;;;;;;;;;;;18.25;44.77;100285.78;4297348;33;20315;-83
2022/07/12 01:11:16;;;;;;;;;;;;;;;18.02;45.69;100284.22;4002987;33;10003683;-83
2022/07/12 01:13:43;;;;;;;;;;;;;;;18.03;45.45;100285.97;4307002;33;20007;-83
2022/07/12 01:16:10;;;;;;;;;;;;;;;18.05;45.22;100289.44;4299846;33;20000;-83
2022/07/12 01:18:37;;;;;;;;;;;;;;;17.80;46.20;100288.72;4297463;33;20013;-83
2022/07/12 01:21:07;;;;;;;;;;;;;;;17.87;46.13;100289.59;4296025;33;20044;-83
2022/07/12 01:23:35;;;;;;;;;;;;;;;17.91;45.98;100280.81;4307746;33;20003;-82
2022/07/12 01:26:03;;;;;;;;;;;;;;;17.74;46.67;100277.37;4297720;33;20047;-84
2022/07/12 01:28:29;;;;;;;;;;;;;;;17.74;46.38;100277.37;4297558;33;19997;-85
2022/07/12 01:30:56;;;;;;;;;;;;;;;17.60;47.00;100280.09;4297468;33;19973;-84
2022/07/12 01:33:24;;;;;;;;;;;;;;;17.64;46.69;100274.84;4297248;33;20003;-83
2022/07/12 01:35:51;;;;;;;;;;;;;;;17.41;47.40;100274.09;4307929;33;20032;-83
2022/07/12 01:38:18;;;;;;;;;;;;;;;17.40;47.45;100277.59;4295833;33;20051;-83
2022/07/12 01:40:45;;;;;;;;;;;;;;;17.61;46.46;100277.50;4297520;33;20383;-84
2022/07/12 01:43:14;;;;;;;;;;;;;;;17.50;46.96;100274.03;4296815;33;20060;-84
2022/07/12 01:45:42;;;;;;;;;;;;;;;17.54;46.79;100275.75;4297932;33;20342;-84
2022/07/12 01:48:09;;;;;;;;;;;;;;;17.41;47.05;100268.84;4302230;33;19992;-84
2022/07/12 01:50:36;;;;;;;;;;;;;;;17.62;46.40;100268.75;4311362;33;20064;-83
2022/07/12 01:53:08;;;;;;;;;;;;;;;17.41;47.00;100266.22;4312118;33;19984;-83
2022/07/12 01:55:36;;;;;;;;;;;;;;;17.48;46.69;100265.31;4321982;33;20007;-82
2022/07/12 01:58:03;;;;;;;;;;;;;;;17.59;46.39;100273.12;4312484;33;20132;-84
2022/07/12 02:00:31;;;;;;;;;;;;;;;17.42;46.99;100270.59;4311987;33;19980;-85
2022/07/12 02:02:58;;;;;;;;;;;;;;;17.50;46.88;100262.72;4322422;33;19998;-85
2022/07/12 02:05:25;;;;;;;;;;;;;;;17.48;47.05;100270.56;4311438;33;20350;-84
2022/07/12 02:07:52;;;;;;;;;;;;;;;17.52;46.41;100261.81;4288001;33;783632;-84
2022/07/12 02:10:19;;;;;;;;;;;;;;;17.54;46.19;100270.53;4322661;33;19972;-83
2022/07/12 02:12:46;;;;;;;;;;;;;;;17.67;46.11;100266.94;4310443;33;19999;-84
2022/07/12 02:15:13;;;;;;;;;;;;;;;17.60;46.43;100270.50;4322590;33;20614;-83
2022/07/12 02:17:40;;;;;;;;;;;;;;;17.55;46.39;100271.37;4304111;33;20030;-84
2022/07/12 02:20:09;;;;;;;;;;;;;;;17.20;48.01;100270.69;4319378;33;20040;-83
2022/07/12 02:22:35;;;;;;;;;;;;;;;17.35;47.15;100266.25;4297052;33;20004;-84
2022/07/12 02:25:03;;;;;;;;;;;;;;;17.36;47.11;100270.63;4296838;33;20823;-84
2022/07/12 02:27:30;;;;;;;;;;;;;;;17.56;46.32;100268.78;4307317;33;19992;-83
2022/07/12 02:29:57;;;;;;;;;;;;;;;17.32;47.28;100274.13;4296901;33;20459;-83
2022/07/12 02:32:24;;;;;;;;;;;;;;;17.46;46.96;100277.56;4297272;33;19999;-84
2022/07/12 02:34:51;;;;;;;;;;;;;;;17.10;47.87;100279.47;4297376;33;20290;-83
2022/07/12 02:37:18;;;;;;;;;;;;;;;17.02;48.08;100270.75;4307527;33;20022;-85
2022/07/12 02:39:45;;;;;;;;;;;;;;;17.15;48.00;100277.69;4297185;33;19985;-84
2022/07/12 02:42:12;;;;;;;;;;;;;;;17.22;47.69;100272.44;4296927;33;19981;-83
2022/07/12 02:44:39;;;;;;;;;;;;;;;17.04;48.32;100274.25;4297091;33;20345;-84
2022/07/12 02:47:06;;;;;;;;;;;;;;;17.14;47.99;100269.84;4297166;33;20321;-83
2022/07/12 02:49:33;;;;;;;;;;;;;;;17.01;48.48;100278.63;4295580;33;20002;-82
2022/07/12 02:52:00;;;;;;;;;;;;;;;17.01;48.54;100279.50;4307495;33;20076;-83
2022/07/12 02:54:27;;;;;;;;;;;;;;;17.06;48.41;100288.19;4296982;33;20390;-83
2022/07/12 02:56:54;;;;;;;;;;;;;;;17.09;48.41;100285.56;4296915;33;20456;-83
2022/07/12 02:59:21;;;;;;;;;;;;;;;16.90;48.68;100287.34;4297337;33;19973;-85
2022/07/12 03:01:48;;;;;;;;;;;;;;;16.84;49.23;100291.72;4296808;33;20050;-83
2022/07/12 03:04:15;;;;;;;;;;;;;;;16.94;48.90;100288.22;4296835;33;20390;-83
2022/07/12 03:06:42;;;;;;;;;;;;;;;17.09;48.47;100293.41;4307066;33;19984;-83
2022/07/12 03:09:09;;;;;;;;;;;;;;;16.93;48.97;100292.56;4296985;33;19973;-84
2022/07/12 03:11:39;;;;;;;;;;;;;;;16.89;49.10;100292.59;4296914;33;19992;-84
2022/07/12 03:14:06;;;;;;;;;;;;;;;16.77;49.46;100295.22;4297109;33;20008;-84
2022/07/12 03:16:33;;;;;;;;;;;;;;;16.89;49.05;100290.84;4296957;33;20047;-83
2022/07/12 03:19:00;;;;;;;;;;;;;;;16.94;48.80;100291.72;4289088;33;19977;-84
2022/07/12 03:21:27;;;;;;;;;;;;;;;16.92;49.13;100295.22;4296598;33;20003;-82
2022/07/12 03:23:53;;;;;;;;;;;;;;;16.87;49.49;100296.94;4296554;33;20939;-83
2022/07/12 03:26:21;;;;;;;;;;;;;;;17.04;49.06;100302.13;4296382;33;19976;-83
2022/07/12 03:28:48;;;;;;;;;;;;;;;17.02;49.11;100298.66;4319463;33;20456;-84
2022/07/12 03:31:15;;;;;;;;;;;;;;;16.88;49.64;100294.34;4300265;33;19992;-84
2022/07/12 03:33:42;;;;;;;;;;;;;;;16.84;50.02;100307.41;4321921;32;19988;-84
2022/07/12 03:36:09;;;;;;;;;;;;;;;17.04;49.19;100305.63;4310685;32;20007;-83
2022/07/12 03:38:39;;;;;;;;;;;;;;;17.14;48.96;100304.72;4317627;33;19977;-83
2022/07/12 03:41:06;;;;;;;;;;;;;;;17.16;48.72;100310.81;4311305;33;20267;-83
2022/07/12 03:43:33;;;;;;;;;;;;;;;16.92;49.79;100300.44;4310929;33;19999;-83
2022/07/12 03:46:00;;;;;;;;;;;;;;;16.79;50.54;100307.44;4316068;32;20011;-83
2022/07/12 03:48:27;;;;;;;;;;;;;;;17.06;49.90;100311.72;4311173;33;20015;-82
2022/07/12 03:50:55;;;;;;;;;;;;;;;17.09;49.80;100314.31;4311018;33;20008;-82
2022/07/12 03:53:23;;;;;;;;;;;;;;;17.08;49.97;100309.97;4311073;33;20012;-85
2022/07/12 03:55:50;;;;;;;;;;;;;;;17.00;50.48;100309.13;4307980;32;19996;-83
2022/07/12 03:58:16;;;;;;;;;;;;;;;16.99;50.73;100307.38;4322992;33;19995;-82
2022/07/12 04:00:43;;;;;;;;;;;;;;;17.12;50.09;100306.47;4322124;33;19998;-82
2022/07/12 04:03:10;;;;;;;;;;;;;;;17.41;49.34;100310.72;4323455;33;20074;-81
2022/07/12 04:05:37;;;;;;;;;;;;;;;17.63;48.55;100307.12;4326206;33;19983;-81
2022/07/12 04:08:04;;;;;;;;;;;;;;;17.58;49.29;100308.91;4340289;32;19972;-80
2022/07/12 04:10:32;;;;;;;;;;;;;;;17.64;49.40;100308.00;4333175;32;19988;-82
2022/07/12 04:12:58;;;;;;;;;;;;;;;17.62;49.62;100309.75;4325664;33;20051;-81
2022/07/12 04:15:25;;;;;;;;;;;;;;;17.66;49.67;100308.88;4325861;33;19983;-82
2022/07/12 04:17:52;;;;;;;;;;;;;;;17.72;49.14;100306.22;4324436;32;19995;-83
2022/07/12 04:20:19;;;;;;;;;;;;;;;17.98;48.68;100308.69;4325278;33;20004;-81
2022/07/12 04:22:46;;;;;;;;;;;;;;;17.83;49.39;100303.56;4326097;33;20055;-81
2022/07/12 04:25:13;;;;;;;;;;;;;;;17.95;48.30;100308.72;4315264;32;20003;-81
2022/07/12 04:27:40;;;;;;;;;;;;;;;18.05;48.01;100310.38;4331675;33;20689;-80
2022/07/12 04:30:07;;;;;;;;;;;;;;;18.17;47.60;100309.44;4305452;32;19996;-80
2022/07/12 04:32:34;;;;;;;;;;;;;;;18.27;48.28;100312.88;4309825;33;19993;-82
2022/07/12 04:35:01;;;;;;;;;;;;;;;18.41;47.09;100308.41;4309468;33;20031;-83
2022/07/12 04:37:28;;;;;;;;;;;;;;;18.52;46.16;100308.28;4310139;33;20000;-85
2022/07/12 04:39:57;;;;;;;;;;;;;;;18.58;46.25;100311.72;4308582;33;19996;-86
2022/07/12 04:42:24;;;;;;;;;;;;;;;18.55;47.45;100301.25;4331206;33;20074;-84
2022/07/12 04:44:50;;;;;;;;;;;;;;;18.59;46.21;100313.44;4309622;33;19993;-84
2022/07/12 04:47:18;;;;;;;;;;;;;;;18.82;45.92;100315.00;4308310;33;20417;-85
2022/07/12 04:49:45;;;;;;;;;;;;;;;19.16;43.95;100312.03;4309514;33;20015;-85
2022/07/12 04:52:11;;;;;;;;;;;;;;;19.04;44.73;100311.28;4309907;33;20003;-86
2022/07/12 04:54:38;;;;;;;;;;;;;;;19.13;44.35;100309.44;4309766;33;20056;-88
2022/07/12 04:57:05;;;;;;;;;;;;;;;19.23;43.94;100316.31;4332692;33;19999;-86
2022/07/12 04:59:32;;;;;;;;;;;;;;;19.14;44.18;100316.44;4308381;33;20060;-85
2022/07/12 05:02:00;;;;;;;;;;;;;;;19.22;44.23;100317.22;4309789;33;19984;-84
2022/07/12 05:04:27;;;;;;;;;;;;;;;19.36;43.89;100307.41;4309981;33;20012;-84
2022/07/12 05:06:54;;;;;;;;;;;;;;;19.28;44.72;100309.28;4310006;33;19998;-82
2022/07/12 05:09:21;;;;;;;;;;;;;;;19.60;42.86;100310.63;4310066;32;20040;-84
2022/07/12 05:11:47;;;;;;;;;;;;;;;19.44;43.79;100316.06;4321896;32;20040;-84
2022/07/12 05:14:14;;;;;;;;;;;;;;;19.48;43.59;100322.16;4311417;33;20342;-85
2022/07/12 05:16:41;;;;;;;;;;;;;;;19.60;43.50;100310.63;4334418;32;19991;-86
2022/07/12 05:19:08;;;;;;;;;;;;;;;19.56;43.53;100319.41;4312035;33;20056;-86
2022/07/12 05:21:35;;;;;;;;;;;;;;;19.83;42.64;100319.09;4311845;33;20056;-86
2022/07/12 05:24:03;;;;;;;;;;;;;;;20.01;42.33;100319.72;4311766;33;20002;-85
2022/07/12 05:26:30;;;;;;;;;;;;;;;20.07;41.78;100317.88;4311623;33;19995;-84
2022/07/12 05:28:57;;;;;;;;;;;;;;;19.57;43.72;100321.16;4311851;33;19988;-86
2022/07/12 05:31:25;;;;;;;;;;;;;;;19.77;42.41;100329.69;4311384;33;19996;-86
2022/07/12 05:33:52;;;;;;;;;;;;;;;19.98;42.43;100324.13;4333052;33;20796;-85
2022/07/12 05:36:19;;;;;;;;;;;;;;;19.82;42.79;100321.75;4311292;33;19995;-85
2022/07/12 05:38:46;;;;;;;;;;;;;;;19.94;42.67;100327.69;4311457;33;20346;-86
2022/07/12 05:41:13;;;;;;;;;;;;;;;20.12;41.62;100325.66;4311397;33;20081;-85
2022/07/12 05:43:40;;;;;;;;;;;;;;;20.17;42.22;100319.47;4336153;33;20043;-87
2022/07/12 05:46:08;;;;;;;;;;;;;;;20.41;41.29;100312.91;4316193;33;19980;-87
2022/07/12 05:48:36;;;;;;;;;;;;;;;19.92;43.00;100323.34;4308950;33;19992;-87
2022/07/12 05:54:00;;;;;;;;;;;;;;;20.31;43.17;100327.12;4299692;33;20013;-85
2022/07/12 05:56:27;;;;;;;;;;;;;;;20.71;41.18;100330.88;4311377;33;20015;-85
2022/07/12 05:58:54;;;;;;;;;;;;;;;20.72;41.79;100325.59;4311918;33;20048;-86
2022/07/12 06:01:21;;;;;;;;;;;;;;;20.84;40.79;100324.50;4311299;33;19992;-86
2022/07/12 06:03:49;;;;;;;;;;;;;;;20.99;40.43;100316.31;4311876;33;20456;-85
2022/07/12 06:06:15;;;;;;;;;;;;;;;20.93;40.79;100315.56;4311579;33;20059;-85
2022/07/12 06:08:42;;;;;;;;;;;;;;;21.22;40.26;100318.50;4311182;33;19992;-86
2022/07/12 06:11:09;;;;;;;;;;;;;;;21.50;39.40;100313.56;4311667;33;19995;-86
2022/07/12 06:13:36;;;;;;;;;;;;;;;21.54;38.90;100301.22;4309714;33;20746;-86
2022/07/12 06:16:05;;;;;;;;;;;;;;;21.63;38.98;100300.12;4311639;33;19995;-86
2022/07/12 06:18:36;;;;;;;;;;;;;;;21.78;38.70;100298.00;4311517;32;20031;-86
2022/07/12 06:21:03;;;;;;;;;;;;;;;21.92;38.54;100296.81;4310873;33;20035;-85
2022/07/12 06:23:30;;;;;;;;;;;;;;;22.14;37.42;100295.41;4297982;33;20079;-86
2022/07/12 06:25:58;;;;;;;;;;;;;;;21.99;38.82;100301.06;4310172;33;20357;-88
2022/07/12 06:28:25;;;;;;;;;;;;;;;22.06;39.26;100294.75;4308758;33;19988;-85
2022/07/12 06:30:51;;;;;;;;;;;;;;;22.57;37.08;100296.16;4315877;33;20016;-85
2022/07/12 06:33:19;;;;;;;;;;;;;;;22.61;36.21;100290.75;4316718;33;20031;-86
2022/07/12 06:35:46;;;;;;;;;;;;;;;22.71;36.15;100302.78;4317685;33;20032;-86
2022/07/12 06:38:13;;;;;;;;;;;;;;;22.68;36.22;100308.16;4316740;33;20027;-88
2022/07/12 06:40:40;;;;;;;;;;;;;;;22.43;37.81;100307.06;4317636;33;19983;-87
2022/07/12 06:43:10;;;;;;;;;;;;;;;22.61;37.06;100305.72;4317344;33;20005;-85
2022/07/12 06:45:37;;;;;;;;;;;;;;;22.72;36.99;100307.19;4314450;33;19984;-89
2022/07/12 06:48:05;;;;;;;;;;;;;;;22.63;37.06;100304.78;4317205;33;19997;-86
2022/07/12 06:50:32;;;;;;;;;;;;;;;22.45;38.96;100305.25;4316386;33;20047;-85
2022/07/12 06:52:59;;;;;;;;;;;;;;;22.74;37.92;100305.34;4303931;33;20733;-84
2022/07/12 06:55:27;;;;;;;;;;;;;;;23.02;36.56;100302.00;4317752;33;19981;-85
2022/07/12 06:57:58;;;;;;;;;;;;;;;22.88;37.51;100298.88;4326372;33;19977;-84
2022/07/12 07:00:25;;;;;;;;;;;;;;;23.32;35.67;100309.97;4316916;33;20897;-82
2022/07/12 07:02:55;;;;;;;;;;;;;;;23.82;34.79;100305.00;4328322;33;19991;-81
2022/07/12 07:05:23;;;;;;;;;;;;;;;23.71;34.92;100297.41;4317408;33;19994;-89
2022/07/12 07:07:55;;;;;;;;;;;;;;;24.29;33.01;100294.66;4309671;33;20292;-82
2022/07/12 07:10:22;;;;;;;;;;;;;;;24.28;33.40;100306.16;4310714;33;20244;-82
2022/07/12 07:12:49;;;;;;;;;;;;;;;24.36;34.43;100306.78;4309117;33;19989;-83
2022/07/12 07:15:16;;;;;;;;;;;;;;;24.95;31.91;100298.59;4310790;33;19995;-87
2022/07/12 07:17:43;;;;;;;;;;;;;;;25.04;32.79;100300.88;4310779;33;20123;-80
2022/07/12 07:20:10;;;;;;;;;;;;;;;25.52;31.65;100297.34;4333891;33;19986;-80
2022/07/12 07:22:38;;;;;;;;;;;;;;;25.58;30.75;100295.41;4311160;33;20334;-81
2022/07/12 07:25:05;;;;;;;;;;;;;;;25.37;31.61;100303.25;4310421;33;19988;-80
2022/07/12 07:27:32;;;;;;;;;;;;;;;25.36;32.27;100304.16;4309143;33;19986;-80
2022/07/12 07:32:45;;;;;;;;;;;;;;;25.41;31.49;100310.16;4310525;33;20035;-82
2022/07/12 07:35:17;;;;;;;;;;;;;;;25.54;32.03;100299.09;4313671;33;19979;-81
2022/07/12 07:37:44;;;;;;;;;;;;;;;25.74;30.89;100302.69;4316709;33;20405;-84
2022/07/12 07:40:11;;;;;;;;;;;;;;;25.76;30.47;100302.66;4309317;33;20007;-83
2022/07/12 07:42:38;;;;;;;;;;;;;;;25.56;31.82;100287.53;4306614;33;20499;-81
2022/07/12 07:45:07;;;;;;;;;;;;;;;25.85;30.84;100294.37;4309626;33;20472;-81
2022/07/12 07:47:48;;;;;;;;;;;;;;;25.47;32.51;100298.47;4308957;33;19980;-86
2022/07/12 07:50:35;;;;;;;;;;;;;;;25.59;33.18;100287.41;4311650;33;19992;-81
2022/07/12 07:53:06;;;;;;;;;;;;;;;25.47;33.16;100288.72;4314515;33;20004;-82
2022/07/12 07:55:33;;;;;;;;;;;;;;;25.94;31.43;100291.34;4316386;33;19995;-86
2022/07/12 07:58:01;;;;;;;;;;;;;;;25.51;33.99;100290.34;4339881;32;20004;-92
2022/07/12 08:00:28;;;;;;;;;;;;;;;26.34;30.54;100300.31;4316639;33;20002;-83
2022/07/12 08:02:55;;;;;;;;;;;;;;;26.34;31.16;100297.66;4303338;33;19992;-84
2022/07/12 08:05:23;;;;;;;;;;;;;;;26.12;31.21;100299.47;4312225;33;20239;-84
2022/07/12 08:07:55;;;;;;;;;;;;;;;26.40;30.49;100291.25;4312610;33;20043;-87
2022/07/12 08:10:22;;;;;;;;;;;;;;;26.72;31.44;100303.19;4311045;33;20007;-85
2022/07/12 08:12:52;;;;;;;;;;;;;;;26.84;29.65;100294.69;4310233;33;20015;-90
2022/07/12 08:15:26;;;;;;;;;;;;;;;26.72;31.94;100303.19;4311132;33;20012;-83
2022/07/12 08:17:54;;;;;;;;;;;;;;;26.61;29.89;100295.69;4304155;33;20013;-88
2022/07/12 08:20:25;;;;;;;;;;;;;;;26.42;30.15;100300.88;4325392;33;19996;-84
2022/07/12 08:23:12;;;;;;;;;;;;;;;26.61;29.63;100290.38;4323801;33;19987;-86
2022/07/12 08:25:39;;;;;;;;;;;;;;;26.39;30.33;100310.75;4324325;33;21206;-85
2022/07/12 08:28:06;;;;;;;;;;;;;;;26.34;30.15;100304.78;4325286;33;20326;-85
2022/07/12 08:30:33;;;;;;;;;;;;;;;25.89;31.92;100317.19;4328198;33;19988;-89
2022/07/12 08:33:00;;;;;;;;;;;;;;;26.07;30.79;100314.72;4335267;33;20041;-91
2022/07/12 08:35:27;;;;;;;;;;;;;;;25.86;32.29;100306.69;4332527;33;19979;-84
2022/07/12 08:37:54;;;;;;;;;;;;;;;26.61;30.51;100302.75;4338540;33;20035;-85
2022/07/12 08:40:22;;;;;;;;;;;;;;;27.19;28.93;100307.38;4327955;32;20003;-85
2022/07/12 08:42:49;;;;;;;;;;;;;;;26.97;31.30;100307.44;4332164;33;20062;-84
2022/07/12 08:45:16;;;;;;;;;;;;;;;27.33;29.42;100297.81;4324569;33;20009;-85
2022/07/12 08:47:44;;;;;;;;;;;;;;;27.50;29.92;100296.16;4323013;33;20657;-88
2022/07/12 08:50:16;;;;;;;;;;;;;;;27.73;27.27;100287.97;4326902;33;20048;-85
2022/07/12 08:52:44;;;;;;;;;;;;;;;27.95;26.75;100289.59;4326418;33;19984;-83
2022/07/12 08:55:18;;;;;;;;;;;;;;;27.55;30.07;100280.87;4326726;33;20372;-84
2022/07/12 08:57:45;;;;;;;;;;;;;;;27.62;29.57;100284.94;4325155;32;19983;-84
2022/07/12 09:00:13;;;;;;;;;;;;;;;27.93;27.57;100278.19;4323974;33;20023;-85
2022/07/12 09:02:45;;;;;;;;;;;;;;;28.46;26.57;100290.66;4326021;33;19999;-84
2022/07/12 09:05:13;;;;;;;;;;;;;;;28.55;26.70;100287.50;4325894;32;19998;-85
2022/07/12 09:07:44;;;;;;;;;;;;;;;28.00;29.52;100287.59;4326315;33;20004;-85
2022/07/12 09:10:11;;;;;;;;;;;;;;;28.15;26.75;100278.88;4336930;33;20051;-84
2022/07/12 09:12:40;;;;;;;;;;;;;;;28.59;25.06;100289.09;4326477;33;20003;-87
2022/07/12 09:15:20;;;;;;;;;;;;;;;28.29;25.24;100281.69;4326385;33;20035;-84
2022/07/12 09:17:47;;;;;;;;;;;;;;;28.53;25.56;100278.75;4325943;33;20027;-84
2022/07/12 09:20:15;;;;;;;;;;;;;;;28.45;25.82;100280.94;4326700;33;19987;-84
2022/07/12 09:22:47;;;;;;;;;;;;;;;27.36;28.71;100284.37;4326487;33;19983;-84
2022/07/12 09:25:15;;;;;;;;;;;;;;;27.46;28.30;100284.81;4349126;32;19983;-83
2022/07/12 09:27:46;;;;;;;;;;;;;;;27.66;27.45;100283.84;4326976;33;19999;-84
2022/07/12 09:30:13;;;;;;;;;;;;;;;27.62;26.90;100274.31;4326655;33;19987;-84
2022/07/12 09:38:26;;;;;;;;;;;;;;;27.56;26.65;100269.28;4348129;32;19992;-86
2022/07/12 09:40:54;;;;;;;;;;;;;;;27.29;28.62;100274.97;4326249;33;19984;-87
2022/07/12 09:43:22;;;;;;;;;;;;;;;27.96;26.57;100272.72;4326321;33;20051;-86
2022/07/12 09:45:49;;;;;;;;;;;;;;;27.78;28.72;100280.66;4349426;32;20332;-87
2022/07/12 09:48:16;;;;;;;;;;;;;;;28.54;25.44;100269.81;4349248;32;20424;-89
2022/07/12 09:50:45;;;;;;;;;;;;;;;28.59;25.93;100267.78;4349763;32;20599;-85
2022/07/12 09:53:13;;;;;;;;;;;;;;;28.61;24.36;100276.53;4326777;33;20007;-87
2022/07/12 09:55:40;;;;;;;;;;;;;;;28.36;25.34;100276.03;4325315;33;19972;-86
2022/07/12 09:58:07;;;;;;;;;;;;;;;27.91;25.57;100280.06;4349080;32;19983;-86
2022/07/12 10:00:36;;;;;;;;;;;;;;;28.04;25.40;100275.84;4349237;32;20007;-86
2022/07/12 10:03:03;;;;;;;;;;;;;;;27.18;28.34;100263.94;4038056;32;10004473;-86
2022/07/12 10:05:30;;;;;;;;;;;;;;;26.80;29.50;100257.66;4311882;33;19984;-87
2022/07/12 10:07:57;;;;;;;;;;;;;;;27.33;28.01;100265.91;4311382;33;20032;-87
2022/07/12 10:10:25;;;;;;;;;;;;;;;27.40;29.25;100262.97;4310426;33;20397;-88
2022/07/12 10:12:51;;;;;;;;;;;;;;;27.54;25.78;100268.50;4311612;33;19992;-87
2022/07/12 10:15:19;;;;;;;;;;;;;;;27.60;27.23;100276.19;4310134;33;19972;-86
2022/07/12 10:17:54;;;;;;;;;;;;;;;27.98;25.85;100270.84;4310099;33;19990;-87
2022/07/12 10:20:22;;;;;;;;;;;;;;;27.98;26.41;100260.19;4311669;33;20000;-86
2022/07/12 10:22:52;;;;;;;;;;;;;;;28.37;25.28;100261.81;4310401;33;19988;-86
2022/07/12 10:25:25;;;;;;;;;;;;;;;28.52;24.87;100256.56;4311431;33;19992;-86
2022/07/12 10:27:52;;;;;;;;;;;;;;;28.19;26.63;100248.47;4311660;33;20036;-85
2022/07/12 10:30:20;;;;;;;;;;;;;;;28.38;25.25;100252.88;4310006;33;19992;-88
2022/07/12 10:32:48;;;;;;;;;;;;;;;28.47;24.02;100249.78;4311375;33;20025;-86
2022/07/12 10:35:17;;;;;;;;;;;;;;;28.07;27.32;100254.41;4311276;33;19988;-89
2022/07/12 10:38:02;;;;;;;;;;;;;;;27.73;26.17;100240.09;4317808;33;20063;-86
2022/07/12 10:40:33;;;;;;;;;;;;;;;28.26;23.84;100241.91;4326024;33;19984;-87
2022/07/12 10:43:00;;;;;;;;;;;;;;;28.23;25.17;100233.22;4347286;32;20007;-88
2022/07/12 10:45:30;;;;;;;;;;;;;;;28.12;24.79;100243.56;4325767;33;20541;-86
2022/07/12 10:47:59;;;;;;;;;;;;;;;27.99;26.12;100244.16;4349223;32;19994;-86
2022/07/12 10:51:00;;;;;;;;;;;;;;;27.97;25.00;100247.81;4326569;33;20039;-87
2022/07/12 10:53:30;;;;;;;;;;;;;;;27.58;25.86;100264.75;4325974;33;20043;-87
2022/07/12 10:56:09;;;;;;;;;;;;;;;27.25;31.38;100329.22;4325651;33;20042;-88
2022/07/12 10:58:41;;;;;;;;;;;;;;;26.32;32.14;100335.81;4326059;33;20365;-87
2022/07/12 11:01:12;;;;;;;;;;;;;;;25.26;39.05;100326.62;4349189;32;19988;-91
2022/07/12 11:03:44;;;;;;;;;;;;;;;24.72;44.12;100314.41;4348987;32;19995;-93
2022/07/12 11:06:12;;;;;;;;;;;;;;;24.51;45.00;100300.16;4349191;32;19999;-91
2022/07/12 11:08:52;;;;;;;;;;;;;;;24.35;46.33;100294.47;4349167;32;20032;-87
2022/07/12 11:11:19;;;;;;;;;;;;;;;24.12;51.69;100290.81;4325320;33;20059;-93
2022/07/12 11:13:46;;;;;;;;;;;;;;;24.63;50.36;100290.91;4348700;32;20010;-92
2022/07/12 11:16:13;;;;;;;;;;;;;;;24.98;48.24;100285.25;4326960;33;19987;-88
2022/07/12 11:18:40;;;;;;;;;;;;;;;25.23;49.91;100273.75;4332170;33;19979;-89
2022/07/12 11:21:08;;;;;;;;;;;;;;;25.96;47.95;100270.91;4330540;33;20027;-90
2022/07/12 11:23:34;;;;;;;;;;;;;;;26.43;43.70;100259.25;4335874;32;19990;-88
2022/07/12 11:26:02;;;;;;;;;;;;;;;26.74;45.62;100252.62;4352790;32;20436;-96
2022/07/12 11:28:30;;;;;;;;;;;;;;;26.96;43.24;100257.84;4325656;33;19976;-94
2022/07/12 11:31:01;;;;;;;;;;;;;;;27.18;39.54;100258.63;4322162;33;19999;-91
2022/07/12 11:33:56;;;;;;;;;;;;;;;27.38;38.44;100249.75;4323357;33;20002;-88
2022/07/12 11:36:24;;;;;;;;;;;;;;;27.17;38.15;100234.78;4327818;33;19992;-87
2022/07/12 11:38:51;;;;;;;;;;;;;;;27.30;36.96;100239.47;4330964;33;19988;-88
2022/07/12 11:41:19;;;;;;;;;;;;;;;27.40;34.47;100241.69;4329718;33;19995;-87
2022/07/12 11:43:46;;;;;;;;;;;;;;;27.39;33.85;100246.16;4326579;33;20052;-87
2022/07/12 11:46:13;;;;;;;;;;;;;;;27.16;33.14;100236.59;4326219;33;19996;-86
2022/07/12 11:48:41;;;;;;;;;;;;;;;27.00;33.38;100227.56;4323861;33;20019;-87
2022/07/12 11:51:12;;;;;;;;;;;;;;;27.62;31.56;100229.09;4323924;33;19992;-85
2022/07/12 11:53:40;;;;;;;;;;;;;;;27.55;30.55;100225.00;4325181;33;19988;-87
2022/07/12 11:56:08;;;;;;;;;;;;;;;27.53;32.39;100216.22;4324417;33;20343;-92
2022/07/12 11:58:38;;;;;;;;;;;;;;;27.78;29.49;100216.78;4324162;33;20008;-84
2022/07/12 12:01:09;;;;;;;;;;;;;;;27.73;27.45;100213.47;4324587;33;19976;-85
2022/07/12 12:03:44;;;;;;;;;;;;;;;27.49;29.96;100214.66;4324592;33;19990;-88
2022/07/12 12:06:11;;;;;;;;;;;;;;;27.95;27.71;100201.78;4322860;33;20032;-86
2022/07/12 12:08:38;;;;;;;;;;;;;;;28.21;26.91;100211.16;4340635;32;20003;-86
2022/07/12 12:11:05;;;;;;;;;;;;;;;28.13;26.92;100192.87;4321827;33;20108;-88
2022/07/12 12:13:32;;;;;;;;;;;;;;;28.03;26.54;100210.25;4310646;33;19994;-86
2022/07/12 12:16:01;;;;;;;;;;;;;;;27.90;27.57;100209.16;4323963;33;19992;-95
2022/07/12 12:18:32;;;;;;;;;;;;;;;28.00;27.95;100215.75;4324314;33;20031;-87
2022/07/12 12:20:59;;;;;;;;;;;;;;;27.71;27.40;100204.72;4324011;33;19996;-86
2022/07/12 12:23:26;;;;;;;;;;;;;;;27.36;29.55;100217.91;4327661;32;20035;-87
2022/07/12 12:26:07;;;;;;;;;;;;;;;27.75;26.51;100211.59;4324450;33;19988;-88
2022/07/12 12:28:47;;;;;;;;;;;;;;;27.90;25.84;100209.16;4321485;33;19972;-86
2022/07/12 12:31:15;;;;;;;;;;;;;;;27.57;28.01;100212.50;4321161;33;20502;-90
2022/07/12 12:33:58;;;;;;;;;;;;;;;27.63;25.00;100217.50;4338377;32;19984;-90
2022/07/12 12:36:26;;;;;;;;;;;;;;;27.62;26.26;100218.44;4322245;33;20407;-89
2022/07/12 12:38:54;;;;;;;;;;;;;;;27.25;27.19;100222.88;4334461;32;20023;-88
2022/07/12 12:41:22;;;;;;;;;;;;;;;26.83;29.12;100215.88;4317779;33;20043;-89
2022/07/12 12:43:59;;;;;;;;;;;;;;;26.93;26.98;100215.47;4316311;33;20344;-85
2022/07/12 12:46:45;;;;;;;;;;;;;;;27.26;27.99;100218.41;4316118;33;20053;-88
2022/07/12 12:49:12;;;;;;;;;;;;;;;26.90;28.58;100206.72;4316718;33;19991;-88
2022/07/12 12:51:53;;;;;;;;;;;;;;;27.06;27.47;100211.34;4314022;33;20011;-88